F E Warren AFB, Wyoming
Current Conditions -  °F | °C
As of 4:53 PM on Monday 24 Nov 2014 (Local Time) from KCYS Reporting Station
Unknown Precip Unknown Precip  
Wind Chill: -10°   Ceiling: 7000
Heat Index: -3°   Visibility: 8mi
Dew Point: -9°   Wind: 16mph
Humidity: 61%   Direction: 320°NW
Pressure: 30.1"   Gusts: 26mph
Location:  41.13°N, 104.82°W
Report Text: KCYS 242353Z 32014G23KT 8SM UP FEW037 BKN070 OVC100 M03/M09 A3010 RMK AO2 PK WND 33034/2313 UPE06B29SNB06E29 SLP231 P0000 60004 T10281094 10011 21044 51018
Loading
Personal Weather Stations






























Interactive Weather Map New forecast layout! Learn more

10-Day Weather Forecast

Advertisements
Track Severe Weather on mobile